createdAt,value
2023-05-25T00:02:07.877Z,13.00
2023-05-25T00:04:37.218Z,13.00
2023-05-25T00:07:06.785Z,13.00
2023-05-25T00:09:36.495Z,12.90
2023-05-25T00:12:06.117Z,12.90
2023-05-25T00:14:35.120Z,12.80
2023-05-25T00:17:06.665Z,12.70
2023-05-25T00:19:35.780Z,12.70
2023-05-25T00:22:04.940Z,12.80
2023-05-25T00:24:33.924Z,12.80
2023-05-25T00:27:03.526Z,12.80
2023-05-25T00:29:32.466Z,12.80
2023-05-25T00:32:03.181Z,12.60
2023-05-25T00:34:33.494Z,12.60
2023-05-25T00:37:02.720Z,12.60
2023-05-25T00:39:31.797Z,12.50
2023-05-25T00:42:03.615Z,12.60
2023-05-25T00:44:33.000Z,12.60
2023-05-25T00:47:03.089Z,12.60
2023-05-25T00:49:37.370Z,12.60
2023-05-25T00:52:07.553Z,12.70
2023-05-25T00:54:37.766Z,12.70
2023-05-25T00:57:09.768Z,12.60
2023-05-25T00:59:42.808Z,12.60
2023-05-25T01:02:16.360Z,12.50
2023-05-25T01:04:52.616Z,12.50
2023-05-25T01:07:25.335Z,12.50
2023-05-25T01:10:01.905Z,12.50
2023-05-25T01:12:34.417Z,12.40
2023-05-25T01:15:06.573Z,12.30
2023-05-25T01:17:38.121Z,12.30
2023-05-25T01:20:13.002Z,12.20
2023-05-25T01:22:48.842Z,12.20
2023-05-25T01:25:23.936Z,12.20
2023-05-25T01:27:58.981Z,12.40
2023-05-25T01:30:29.247Z,12.50
2023-05-25T01:32:59.641Z,12.50
2023-05-25T01:35:30.778Z,12.40
2023-05-25T01:38:01.421Z,12.20
2023-05-25T01:40:30.360Z,12.10
2023-05-25T01:42:59.320Z,12.20
2023-05-25T01:45:28.981Z,12.30
2023-05-25T01:48:06.454Z,12.30
2023-05-25T01:50:44.730Z,12.30
2023-05-25T01:53:21.783Z,12.30
2023-05-25T01:55:57.481Z,12.30
2023-05-25T01:58:28.722Z,12.20
2023-05-25T02:00:59.017Z,12.10
2023-05-25T02:03:28.644Z,12.00
2023-05-25T02:05:58.143Z,12.00
2023-05-25T02:08:28.535Z,11.90
2023-05-25T02:10:57.749Z,11.80
2023-05-25T02:13:26.664Z,11.80
2023-05-25T02:15:56.413Z,11.80
2023-05-25T02:18:25.372Z,11.70
2023-05-25T02:20:58.149Z,11.60
2023-05-25T02:23:28.991Z,11.70
2023-05-25T02:25:57.994Z,11.70
2023-05-25T02:28:27.042Z,11.70
2023-05-25T02:30:57.271Z,11.70
2023-05-25T02:33:26.282Z,11.70
2023-05-25T02:35:55.339Z,11.60
2023-05-25T02:38:24.371Z,11.60
2023-05-25T02:40:54.589Z,11.50
2023-05-25T02:43:25.808Z,11.50
2023-05-25T02:45:54.780Z,11.60
2023-05-25T02:48:23.882Z,11.60
2023-05-25T02:50:52.856Z,11.50
2023-05-25T02:53:21.855Z,11.50
2023-05-25T02:55:50.769Z,11.50
2023-05-25T02:58:23.619Z,11.40
2023-05-25T03:01:06.154Z,11.30
2023-05-25T03:03:38.487Z,11.30
2023-05-25T03:06:08.195Z,11.30
2023-05-25T03:08:37.385Z,11.30
2023-05-25T03:11:06.953Z,11.30
2023-05-25T03:13:38.344Z,11.30
2023-05-25T03:16:08.516Z,11.30
2023-05-25T03:18:37.849Z,11.30
2023-05-25T03:21:06.978Z,11.30
2023-05-25T03:23:36.580Z,11.30
2023-05-25T03:26:09.296Z,11.20
2023-05-25T03:28:39.659Z,11.30
2023-05-25T03:31:08.653Z,11.30
2023-05-25T03:33:37.969Z,11.40
2023-05-25T03:36:09.300Z,11.40
2023-05-25T03:38:39.875Z,11.40
2023-05-25T03:41:08.897Z,11.50
2023-05-25T03:43:40.353Z,11.50
2023-05-25T03:46:11.776Z,11.50
2023-05-25T03:48:42.080Z,11.50
2023-05-25T03:51:11.076Z,11.50
2023-05-25T03:53:40.153Z,11.30
2023-05-25T03:56:10.240Z,11.20
2023-05-25T03:58:41.326Z,11.20
2023-05-25T04:01:12.592Z,11.10
2023-05-25T04:03:41.864Z,11.10
2023-05-25T04:06:11.636Z,11.10
2023-05-25T04:08:41.177Z,11.10
2023-05-25T04:11:10.333Z,11.20
2023-05-25T04:13:40.662Z,11.30
2023-05-25T04:16:12.474Z,11.40
2023-05-25T04:18:42.565Z,11.50
2023-05-25T04:21:11.486Z,11.30
2023-05-25T04:23:41.020Z,11.30
2023-05-25T04:26:11.260Z,11.40
2023-05-25T04:28:44.276Z,11.50
2023-05-25T04:31:44.046Z,11.60
2023-05-25T04:34:15.759Z,11.60
2023-05-25T04:36:53.259Z,11.60
2023-05-25T04:39:22.350Z,11.60
2023-05-25T04:41:55.795Z,11.60
2023-05-25T04:44:30.016Z,11.50
2023-05-25T04:47:01.361Z,11.40
2023-05-25T04:49:35.831Z,11.40
2023-05-25T04:52:05.597Z,11.50
2023-05-25T04:54:36.004Z,11.60
2023-05-25T04:57:05.516Z,11.70
2023-05-25T04:59:36.263Z,11.80
2023-05-25T05:02:06.673Z,11.80
2023-05-25T05:04:37.392Z,11.90
2023-05-25T05:07:09.402Z,11.90
2023-05-25T05:09:39.805Z,12.00
2023-05-25T05:12:12.085Z,12.00
2023-05-25T05:14:48.063Z,12.00
2023-05-25T05:17:17.689Z,12.00
2023-05-25T05:19:47.775Z,12.00
2023-05-25T05:22:17.033Z,11.90
2023-05-25T05:24:47.791Z,12.00
2023-05-25T05:27:23.790Z,12.00
2023-05-25T05:29:58.830Z,11.80
2023-05-25T05:32:28.042Z,11.80
2023-05-25T05:34:58.188Z,11.90
2023-05-25T05:37:48.460Z,12.00
2023-05-25T05:40:17.482Z,12.20
2023-05-25T05:42:46.694Z,12.30
2023-05-25T05:45:17.267Z,12.40
2023-05-25T05:47:46.534Z,12.50
2023-05-25T05:50:15.665Z,12.50
2023-05-25T05:52:44.717Z,12.50
2023-05-25T05:55:13.991Z,12.60
2023-05-25T05:57:44.166Z,12.70
2023-05-25T06:00:14.524Z,12.60
2023-05-25T06:02:47.460Z,12.70
2023-05-25T06:05:22.005Z,12.90
2023-05-25T06:07:51.909Z,13.00
2023-05-25T06:10:23.097Z,13.00
2023-05-25T06:12:52.165Z,13.10
2023-05-25T06:15:21.228Z,13.30
2023-05-25T06:17:54.418Z,13.00
2023-05-25T06:20:24.031Z,13.00
2023-05-25T06:22:53.786Z,12.90
2023-05-25T06:25:23.017Z,13.00
2023-05-25T06:27:52.467Z,13.10
2023-05-25T06:30:21.427Z,13.30
2023-05-25T06:32:50.491Z,13.50
2023-05-25T06:35:21.051Z,13.60
2023-05-25T06:37:52.864Z,13.40
2023-05-25T06:40:22.387Z,13.60
2023-05-25T06:42:51.361Z,13.60
2023-05-25T06:45:39.845Z,13.70
2023-05-25T06:48:08.840Z,13.80
2023-05-25T06:50:39.914Z,13.60
2023-05-25T06:53:08.743Z,13.50
2023-05-25T06:55:37.713Z,13.60
2023-05-25T06:58:06.816Z,13.50
2023-05-25T07:00:35.725Z,13.60
2023-05-25T07:03:05.039Z,13.60
2023-05-25T07:05:33.969Z,13.70
2023-05-25T07:08:04.248Z,13.70
2023-05-25T07:10:33.178Z,13.80
2023-05-25T07:13:02.169Z,13.90
2023-05-25T07:15:31.131Z,13.90
2023-05-25T07:18:00.080Z,13.90
2023-05-25T07:20:30.224Z,14.00
2023-05-25T07:22:59.249Z,13.90
2023-05-25T07:25:30.345Z,14.00
2023-05-25T07:27:59.579Z,14.10
2023-05-25T07:30:28.576Z,14.30
2023-05-25T07:32:58.265Z,14.40
2023-05-25T07:35:27.651Z,14.50
2023-05-25T07:38:00.264Z,14.60
2023-05-25T07:40:30.563Z,14.70
2023-05-25T07:42:59.624Z,14.80
2023-05-25T07:45:28.636Z,14.90
2023-05-25T07:47:57.706Z,15.00
2023-05-25T07:50:26.777Z,15.10
2023-05-25T07:52:55.736Z,15.20
2023-05-25T07:55:24.663Z,15.40
2023-05-25T07:57:55.611Z,15.40
2023-05-25T08:00:25.225Z,15.40
2023-05-25T08:02:54.232Z,15.40
2023-05-25T08:05:23.064Z,15.30
2023-05-25T08:07:52.128Z,15.20
2023-05-25T08:10:21.300Z,15.30
2023-05-25T08:12:51.741Z,15.60
2023-05-25T08:15:25.561Z,15.60
2023-05-25T08:17:55.821Z,15.60
2023-05-25T08:20:25.886Z,15.50
2023-05-25T08:22:54.889Z,15.50
2023-05-25T08:25:23.885Z,15.70
2023-05-25T08:27:52.835Z,15.70
2023-05-25T08:30:23.090Z,15.80
2023-05-25T08:32:52.293Z,16.00
2023-05-25T08:35:21.199Z,16.20
2023-05-25T08:37:50.838Z,16.50
2023-05-25T08:40:23.783Z,16.70
2023-05-25T08:42:54.166Z,16.90
2023-05-25T08:45:34.748Z,16.90
2023-05-25T08:48:09.439Z,17.20
2023-05-25T08:50:41.359Z,17.20
2023-05-25T08:53:12.974Z,17.00
2023-05-25T08:55:44.370Z,16.90
2023-05-25T08:58:20.673Z,17.00
2023-05-25T09:00:58.397Z,17.00
2023-05-25T09:03:28.183Z,17.40
2023-05-25T09:05:58.212Z,17.70
2023-05-25T09:08:28.174Z,17.90
2023-05-25T09:10:58.395Z,17.60
2023-05-25T09:13:28.065Z,17.30
2023-05-25T09:15:58.660Z,17.30
2023-05-25T09:18:27.630Z,17.40
2023-05-25T09:20:57.079Z,17.20
2023-05-25T09:23:26.505Z,17.40
2023-05-25T09:25:55.960Z,17.60
2023-05-25T09:28:27.448Z,17.70
2023-05-25T09:30:58.281Z,18.10
2023-05-25T09:33:27.540Z,18.00
2023-05-25T09:35:57.343Z,17.70
2023-05-25T09:38:26.480Z,17.80
2023-05-25T09:40:55.504Z,18.30
2023-05-25T09:43:39.769Z,18.20
2023-05-25T09:46:12.408Z,18.00
2023-05-25T09:48:42.076Z,17.80
2023-05-25T09:51:11.371Z,17.80
2023-05-25T09:53:40.241Z,17.90
2023-05-25T09:56:09.321Z,18.20
2023-05-25T09:58:38.577Z,18.50
2023-05-25T10:01:07.836Z,18.60
2023-05-25T10:03:59.808Z,18.80
2023-05-25T10:06:34.062Z,19.30
2023-05-25T10:09:05.143Z,19.50
2023-05-25T10:11:36.964Z,19.30
2023-05-25T10:14:09.018Z,18.80
2023-05-25T10:16:42.270Z,19.00
2023-05-25T10:19:18.427Z,18.90
2023-05-25T10:22:00.240Z,18.80
2023-05-25T10:24:39.593Z,18.70
2023-05-25T10:27:25.711Z,18.10
2023-05-25T10:29:58.010Z,17.90
2023-05-25T10:32:28.262Z,17.90
2023-05-25T10:34:59.863Z,18.00
2023-05-25T10:37:29.384Z,18.60
2023-05-25T10:39:59.444Z,19.00
2023-05-25T10:42:29.886Z,19.40
2023-05-25T10:45:01.879Z,19.70
2023-05-25T10:47:32.840Z,19.50
2023-05-25T10:50:03.656Z,18.80
2023-05-25T10:52:33.732Z,18.40
2023-05-25T10:55:04.977Z,18.20
2023-05-25T10:57:33.901Z,18.10
2023-05-25T11:00:06.640Z,18.30
2023-05-25T11:02:53.789Z,18.40
2023-05-25T11:05:42.167Z,18.00
2023-05-25T11:08:12.792Z,18.30
2023-05-25T11:10:54.825Z,18.40
2023-05-25T11:13:39.007Z,18.70
2023-05-25T11:16:20.647Z,19.00
2023-05-25T11:18:54.939Z,18.40
2023-05-25T11:21:43.772Z,18.40
2023-05-25T11:24:15.225Z,18.50
2023-05-25T11:27:06.194Z,18.70
2023-05-25T11:29:37.268Z,18.80
2023-05-25T11:32:07.247Z,19.30
2023-05-25T11:34:36.234Z,19.50
2023-05-25T11:37:06.663Z,19.90
2023-05-25T11:39:35.882Z,19.70
2023-05-25T11:42:07.148Z,19.50
2023-05-25T11:44:37.370Z,19.20
2023-05-25T11:47:10.180Z,18.80
2023-05-25T11:49:42.100Z,18.60
2023-05-25T11:52:13.374Z,18.80
2023-05-25T11:54:42.548Z,19.20
2023-05-25T11:57:19.566Z,19.50
2023-05-25T11:59:52.211Z,19.70
2023-05-25T12:02:21.817Z,19.50
2023-05-25T12:04:57.800Z,19.40
2023-05-25T12:07:32.234Z,19.30
2023-05-25T12:10:08.172Z,19.40
2023-05-25T12:12:42.336Z,19.70
2023-05-25T12:15:12.983Z,19.80
2023-05-25T12:17:46.774Z,19.70
2023-05-25T12:20:17.870Z,19.60
2023-05-25T12:22:48.980Z,19.70
2023-05-25T12:25:22.038Z,19.60
2023-05-25T12:27:51.641Z,19.40
2023-05-25T12:30:28.922Z,19.40
2023-05-25T12:33:04.186Z,19.60
2023-05-25T12:35:48.050Z,19.50
2023-05-25T12:38:20.430Z,19.40
2023-05-25T12:40:49.342Z,19.50
2023-05-25T12:43:18.772Z,19.50
2023-05-25T12:45:47.649Z,19.60
2023-05-25T12:48:16.793Z,19.60
2023-05-25T12:51:01.275Z,19.90
2023-05-25T12:53:31.692Z,19.90
2023-05-25T12:56:03.936Z,19.70
2023-05-25T12:58:32.867Z,19.60
2023-05-25T13:01:01.715Z,19.60
2023-05-25T13:03:30.977Z,19.70
2023-05-25T13:06:03.703Z,19.60
2023-05-25T13:08:34.016Z,19.50
2023-05-25T13:11:03.796Z,19.40
2023-05-25T13:13:32.980Z,19.80
2023-05-25T13:16:02.045Z,19.90
2023-05-25T13:18:31.397Z,19.70
2023-05-25T13:21:00.785Z,19.70
2023-05-25T13:23:29.937Z,20.00
2023-05-25T13:26:00.139Z,20.30
2023-05-25T13:28:29.136Z,20.20
2023-05-25T13:30:58.115Z,20.00
2023-05-25T13:33:28.623Z,19.90
2023-05-25T13:36:08.410Z,19.70
2023-05-25T13:38:38.980Z,19.50
2023-05-25T13:41:09.624Z,19.40
2023-05-25T13:43:38.740Z,19.60
2023-05-25T13:46:08.857Z,19.70
2023-05-25T13:48:40.794Z,19.70
2023-05-25T13:51:09.825Z,19.50
2023-05-25T13:53:38.718Z,19.60
2023-05-25T13:56:10.178Z,19.60
2023-05-25T13:58:39.180Z,19.40
2023-05-25T14:01:09.464Z,19.50
2023-05-25T14:03:39.215Z,19.70
2023-05-25T14:06:08.518Z,19.80
2023-05-25T14:08:41.680Z,19.60
2023-05-25T14:11:13.071Z,19.40
2023-05-25T14:13:44.201Z,19.20
2023-05-25T14:16:13.245Z,19.40
2023-05-25T14:18:42.191Z,19.70
2023-05-25T14:21:13.194Z,20.20
2023-05-25T14:23:42.006Z,20.60
2023-05-25T14:26:12.692Z,20.20
2023-05-25T14:28:41.641Z,20.20
2023-05-25T14:31:12.413Z,20.30
2023-05-25T14:33:42.990Z,20.30
2023-05-25T14:36:12.302Z,20.60
2023-05-25T14:38:41.200Z,21.00
2023-05-25T14:41:11.557Z,21.00
2023-05-25T14:43:40.829Z,20.90
2023-05-25T14:46:11.124Z,21.10
2023-05-25T14:48:40.159Z,21.20
2023-05-25T14:51:09.192Z,21.20
2023-05-25T14:53:40.182Z,21.20
2023-05-25T14:56:13.499Z,21.00
2023-05-25T14:58:42.346Z,20.80
2023-05-25T15:01:11.292Z,20.90
2023-05-25T15:03:40.415Z,20.90
2023-05-25T15:06:09.420Z,20.90
2023-05-25T15:08:38.392Z,21.00
2023-05-25T15:11:08.751Z,21.10
2023-05-25T15:13:40.809Z,20.80
2023-05-25T15:16:12.533Z,20.40
2023-05-25T15:18:41.521Z,20.30
2023-05-25T15:21:10.413Z,20.30
2023-05-25T15:23:39.322Z,20.40
2023-05-25T15:26:09.153Z,20.60
2023-05-25T15:28:41.683Z,20.90
2023-05-25T15:31:10.637Z,21.20
2023-05-25T15:33:53.832Z,21.70
2023-05-25T15:36:27.398Z,21.70
2023-05-25T15:38:56.249Z,21.30
2023-05-25T15:41:25.140Z,20.80
2023-05-25T15:44:01.124Z,20.60
2023-05-25T15:46:30.347Z,20.60
2023-05-25T15:48:59.391Z,20.60
2023-05-25T15:51:28.471Z,20.70
2023-05-25T15:53:58.062Z,20.90
2023-05-25T15:56:28.312Z,20.90
2023-05-25T15:58:59.160Z,21.00
2023-05-25T16:01:28.213Z,21.10
2023-05-25T16:03:57.072Z,21.10
2023-05-25T16:06:26.014Z,21.10
2023-05-25T16:08:57.183Z,21.30
2023-05-25T16:11:27.023Z,21.80
2023-05-25T16:13:56.181Z,23.10
2023-05-25T16:16:26.575Z,23.80
2023-05-25T16:18:55.570Z,24.10
2023-05-25T16:21:27.553Z,24.50
2023-05-25T16:23:56.605Z,25.50
2023-05-25T16:26:26.599Z,25.80
2023-05-25T16:28:55.503Z,25.40
2023-05-25T16:31:26.212Z,25.80
2023-05-25T16:33:55.062Z,26.80
2023-05-25T16:36:26.008Z,26.60
2023-05-25T16:38:57.204Z,26.40
2023-05-25T16:41:28.674Z,25.70
2023-05-25T16:43:57.922Z,24.60
2023-05-25T16:46:28.533Z,24.20
2023-05-25T16:48:57.418Z,24.00
2023-05-25T16:51:26.437Z,24.20
2023-05-25T16:53:56.075Z,25.00
2023-05-25T16:56:26.365Z,25.20
2023-05-25T16:58:55.325Z,24.80
2023-05-25T17:01:24.241Z,24.70
2023-05-25T17:03:54.697Z,25.80
2023-05-25T17:06:23.703Z,25.50
2023-05-25T17:08:52.658Z,24.90
2023-05-25T17:11:26.211Z,23.60
2023-05-25T17:13:55.781Z,22.60
2023-05-25T17:16:24.745Z,22.00
2023-05-25T17:18:55.020Z,21.70
2023-05-25T17:21:24.113Z,21.80
2023-05-25T17:23:53.034Z,22.50
2023-05-25T17:26:22.591Z,23.10
2023-05-25T17:28:51.585Z,23.90
2023-05-25T17:31:20.398Z,24.40
2023-05-25T17:33:49.281Z,24.20
2023-05-25T17:36:19.603Z,24.20
2023-05-25T17:38:48.473Z,24.30
2023-05-25T17:41:17.581Z,23.70
2023-05-25T17:43:47.578Z,23.30
2023-05-25T17:46:17.599Z,23.60
2023-05-25T17:48:46.768Z,23.50
2023-05-25T17:51:15.716Z,23.70
2023-05-25T17:53:45.890Z,23.40
2023-05-25T17:56:14.893Z,23.60
2023-05-25T17:58:47.434Z,23.30
2023-05-25T18:01:17.483Z,23.40
2023-05-25T18:03:46.645Z,23.50
2023-05-25T18:06:16.270Z,23.50
2023-05-25T18:08:46.508Z,23.30
2023-05-25T18:11:18.493Z,23.20
2023-05-25T18:13:47.200Z,23.00
2023-05-25T18:16:17.270Z,22.50
2023-05-25T18:18:46.273Z,22.40
2023-05-25T18:21:15.269Z,22.10
2023-05-25T18:23:44.114Z,21.80
2023-05-25T18:26:14.612Z,21.20
2023-05-25T18:28:43.539Z,20.60
2023-05-25T18:31:12.487Z,20.20
2023-05-25T18:33:41.598Z,19.90
2023-05-25T18:36:11.308Z,19.40
2023-05-25T18:38:42.110Z,19.00
2023-05-25T18:41:11.154Z,18.90
2023-05-25T18:43:42.862Z,18.70
2023-05-25T18:46:15.125Z,18.60
2023-05-25T18:48:43.999Z,18.60
2023-05-25T18:51:12.851Z,18.50
2023-05-25T18:53:41.779Z,18.50
2023-05-25T18:56:10.680Z,18.40
2023-05-25T18:58:39.613Z,18.30
2023-05-25T19:01:10.099Z,18.20
2023-05-25T19:03:39.006Z,18.10
2023-05-25T19:06:08.423Z,18.00
2023-05-25T19:08:37.531Z,17.90
2023-05-25T19:11:06.398Z,17.80
2023-05-25T19:13:36.131Z,17.70
2023-05-25T19:16:06.022Z,17.70
2023-05-25T19:18:36.234Z,17.60
2023-05-25T19:21:05.360Z,17.60
2023-05-25T19:23:35.132Z,17.60
2023-05-25T19:26:03.987Z,17.50
2023-05-25T19:28:32.965Z,17.50
2023-05-25T19:31:02.226Z,17.50
2023-05-25T19:33:31.075Z,17.30
2023-05-25T19:36:02.625Z,17.30
2023-05-25T19:38:40.366Z,17.20
2023-05-25T19:41:10.601Z,17.20
2023-05-25T19:43:39.603Z,17.10
2023-05-25T19:46:08.549Z,17.00
2023-05-25T19:48:39.963Z,16.90
2023-05-25T19:51:10.890Z,16.90
2023-05-25T19:53:39.881Z,16.90
2023-05-25T19:56:09.520Z,16.80
2023-05-25T19:58:38.548Z,16.70
2023-05-25T20:01:07.605Z,16.70
2023-05-25T20:03:37.835Z,16.70
2023-05-25T20:06:09.902Z,16.60
2023-05-25T20:08:40.551Z,16.60
2023-05-25T20:11:09.565Z,16.60
2023-05-25T20:13:38.546Z,16.60
2023-05-25T20:16:10.029Z,16.60
2023-05-25T20:18:39.021Z,16.60
2023-05-25T20:21:07.848Z,16.60
2023-05-25T20:23:36.726Z,16.50
2023-05-25T20:26:07.038Z,16.40
2023-05-25T20:28:35.901Z,16.40
2023-05-25T20:31:05.036Z,16.40
2023-05-25T20:33:33.901Z,16.40
2023-05-25T20:36:02.846Z,16.20
2023-05-25T20:38:31.649Z,16.10
2023-05-25T20:41:01.248Z,16.10
2023-05-25T20:43:31.515Z,16.10
2023-05-25T20:46:00.713Z,16.10
2023-05-25T20:48:29.616Z,15.90
2023-05-25T20:50:58.352Z,15.80
2023-05-25T20:53:27.215Z,15.70
2023-05-25T20:55:57.951Z,15.70
2023-05-25T20:58:26.756Z,15.70
2023-05-25T21:00:56.972Z,15.70
2023-05-25T21:03:25.865Z,15.60
2023-05-25T21:05:54.822Z,15.50
2023-05-25T21:08:25.149Z,15.50
2023-05-25T21:10:54.201Z,15.40
2023-05-25T21:13:23.374Z,15.40
2023-05-25T21:15:52.234Z,15.30
2023-05-25T21:18:22.484Z,15.10
2023-05-25T21:20:51.530Z,15.00
2023-05-25T21:23:20.831Z,15.10
2023-05-25T21:25:49.962Z,15.00
2023-05-25T21:28:18.944Z,15.00
2023-05-25T21:30:47.999Z,14.90
2023-05-25T21:33:16.962Z,14.90
2023-05-25T21:35:47.411Z,14.80
2023-05-25T21:38:16.257Z,14.80
2023-05-25T21:40:45.527Z,14.80
2023-05-25T21:43:14.562Z,14.80
2023-05-25T21:45:43.767Z,14.70
2023-05-25T21:48:12.928Z,14.60
2023-05-25T21:50:41.711Z,14.50
2023-05-25T21:53:11.822Z,14.40
2023-05-25T21:55:41.125Z,14.40
2023-05-25T21:58:10.060Z,14.50
2023-05-25T22:00:39.067Z,14.50
2023-05-25T22:03:08.233Z,14.40
2023-05-25T22:05:37.583Z,14.40
2023-05-25T22:08:06.854Z,14.40
2023-05-25T22:10:37.582Z,14.30
2023-05-25T22:13:06.520Z,14.20
2023-05-25T22:15:35.688Z,14.20
2023-05-25T22:18:06.015Z,14.20
2023-05-25T22:20:38.555Z,14.10
2023-05-25T22:23:08.416Z,14.00
2023-05-25T22:25:38.527Z,14.00
2023-05-25T22:28:07.426Z,13.90
2023-05-25T22:30:36.329Z,13.90
2023-05-25T22:33:05.305Z,13.80
2023-05-25T22:35:34.120Z,13.80
2023-05-25T22:38:02.952Z,13.80
2023-05-25T22:40:31.809Z,13.70
2023-05-25T22:43:01.982Z,13.70
2023-05-25T22:45:30.821Z,13.60
2023-05-25T22:47:59.746Z,13.60
2023-05-25T22:50:28.553Z,13.60
2023-05-25T22:52:57.475Z,13.60
2023-05-25T22:55:26.260Z,13.50
2023-05-25T22:57:55.079Z,13.50
2023-05-25T23:00:25.132Z,13.50
2023-05-25T23:02:54.148Z,13.50
2023-05-25T23:05:23.351Z,13.40
2023-05-25T23:07:52.226Z,13.40
2023-05-25T23:10:21.033Z,13.40
2023-05-25T23:12:50.443Z,13.30
2023-05-25T23:15:19.570Z,13.30
2023-05-25T23:17:49.937Z,13.30
2023-05-25T23:20:19.028Z,13.20
2023-05-25T23:22:47.827Z,13.20
2023-05-25T23:25:17.804Z,13.20
2023-05-25T23:27:47.992Z,13.10
2023-05-25T23:30:17.066Z,13.20
2023-05-25T23:32:46.916Z,13.10
2023-05-25T23:35:17.204Z,13.10
2023-05-25T23:37:46.130Z,13.10
2023-05-25T23:40:15.347Z,13.10
2023-05-25T23:42:45.440Z,13.10
2023-05-25T23:45:14.622Z,13.20
2023-05-25T23:47:43.381Z,13.10
2023-05-25T23:50:12.687Z,13.00
2023-05-25T23:52:42.901Z,13.00
2023-05-25T23:55:11.941Z,13.00
2023-05-25T23:57:41.123Z,12.90
